sensor_id;sensor_type;location;lat;lon;timestamp;pressure;altitude;pressure_sealevel;temperature;humidity
47742;BME280;33504;52.066;6.096;2023-05-20T00:01:25;102424.10;;;15.77;35.47
47742;BME280;33504;52.066;6.096;2023-05-20T00:03:53;102422.73;;;15.80;35.49
47742;BME280;33504;52.066;6.096;2023-05-20T00:06:20;102421.96;;;16.05;35.52
47742;BME280;33504;52.066;6.096;2023-05-20T00:08:46;102423.16;;;15.75;35.47
47742;BME280;33504;52.066;6.096;2023-05-20T00:11:13;102426.00;;;15.70;35.47
47742;BME280;33504;52.066;6.096;2023-05-20T00:13:40;102424.31;;;15.85;35.58
47742;BME280;33504;52.066;6.096;2023-05-20T00:16:08;102423.51;;;15.50;35.78
47742;BME280;33504;52.066;6.096;2023-05-20T00:18:35;102424.85;;;15.74;35.88
47742;BME280;33504;52.066;6.096;2023-05-20T00:21:02;102424.03;;;15.44;36.21
47742;BME280;33504;52.066;6.096;2023-05-20T00:23:29;102425.04;;;15.49;36.14
47742;BME280;33504;52.066;6.096;2023-05-20T00:25:56;102421.73;;;15.42;36.26
47742;BME280;33504;52.066;6.096;2023-05-20T00:28:23;102421.10;;;15.43;36.38
47742;BME280;33504;52.066;6.096;2023-05-20T00:30:50;102423.00;;;15.78;36.06
47742;BME280;33504;52.066;6.096;2023-05-20T00:33:17;102426.25;;;15.77;36.22
47742;BME280;33504;52.066;6.096;2023-05-20T00:35:44;102423.29;;;15.56;36.11
47742;BME280;33504;52.066;6.096;2023-05-20T00:38:12;102422.07;;;15.86;36.00
47742;BME280;33504;52.066;6.096;2023-05-20T00:40:38;102419.56;;;15.83;36.24
47742;BME280;33504;52.066;6.096;2023-05-20T00:43:06;102422.79;;;15.85;36.16
47742;BME280;33504;52.066;6.096;2023-05-20T00:45:33;102420.09;;;15.55;36.30
47742;BME280;33504;52.066;6.096;2023-05-20T00:48:01;102421.54;;;15.86;36.24
47742;BME280;33504;52.066;6.096;2023-05-20T00:50:28;102416.97;;;15.60;36.33
47742;BME280;33504;52.066;6.096;2023-05-20T00:52:55;102416.81;;;15.53;36.43
47742;BME280;33504;52.066;6.096;2023-05-20T00:55:22;102418.31;;;15.51;36.51
47742;BME280;33504;52.066;6.096;2023-05-20T00:57:49;102416.80;;;15.78;36.39
47742;BME280;33504;52.066;6.096;2023-05-20T01:00:18;102415.39;;;15.43;36.71
47742;BME280;33504;52.066;6.096;2023-05-20T01:02:45;102411.20;;;15.52;37.05
47742;BME280;33504;52.066;6.096;2023-05-20T01:05:12;102410.88;;;15.36;36.83
47742;BME280;33504;52.066;6.096;2023-05-20T01:07:39;102408.38;;;15.89;36.68
47742;BME280;33504;52.066;6.096;2023-05-20T01:10:07;102407.93;;;15.90;36.67
47742;BME280;33504;52.066;6.096;2023-05-20T01:12:36;102403.18;;;15.72;36.68
47742;BME280;33504;52.066;6.096;2023-05-20T01:15:07;102404.01;;;15.92;36.80
47742;BME280;33504;52.066;6.096;2023-05-20T01:17:37;102401.72;;;15.45;36.78
47742;BME280;33504;52.066;6.096;2023-05-20T01:20:06;102402.90;;;15.71;36.83
47742;BME280;33504;52.066;6.096;2023-05-20T01:22:36;102402.36;;;15.37;36.95
47742;BME280;33504;52.066;6.096;2023-05-20T01:25:03;102404.99;;;15.87;36.97
47742;BME280;33504;52.066;6.096;2023-05-20T01:27:31;102404.80;;;15.41;36.94
47742;BME280;33504;52.066;6.096;2023-05-20T01:29:58;102397.87;;;15.60;37.12
47742;BME280;33504;52.066;6.096;2023-05-20T01:32:30;102396.62;;;15.84;37.06
47742;BME280;33504;52.066;6.096;2023-05-20T01:34:58;102395.97;;;15.63;37.07
47742;BME280;33504;52.066;6.096;2023-05-20T01:37:26;102395.40;;;15.56;37.50
47742;BME280;33504;52.066;6.096;2023-05-20T01:39:55;102394.33;;;15.60;37.24
47742;BME280;33504;52.066;6.096;2023-05-20T01:42:23;102394.65;;;15.62;37.28
47742;BME280;33504;52.066;6.096;2023-05-20T01:44:52;102392.22;;;15.51;37.46
47742;BME280;33504;52.066;6.096;2023-05-20T01:47:19;102392.36;;;15.73;37.47
47742;BME280;33504;52.066;6.096;2023-05-20T01:49:46;102389.02;;;15.23;37.45
47742;BME280;33504;52.066;6.096;2023-05-20T01:52:13;102387.51;;;15.44;37.59
47742;BME280;33504;52.066;6.096;2023-05-20T01:54:41;102385.22;;;15.07;37.74
47742;BME280;33504;52.066;6.096;2023-05-20T01:57:07;102386.84;;;15.40;37.72
47742;BME280;33504;52.066;6.096;2023-05-20T01:59:34;102381.77;;;15.16;37.57
47742;BME280;33504;52.066;6.096;2023-05-20T02:02:01;102381.41;;;15.15;37.68
47742;BME280;33504;52.066;6.096;2023-05-20T02:04:27;102382.84;;;15.39;37.71
47742;BME280;33504;52.066;6.096;2023-05-20T02:06:55;102381.75;;;15.33;37.93
47742;BME280;33504;52.066;6.096;2023-05-20T02:09:21;102380.83;;;15.56;37.80
47742;BME280;33504;52.066;6.096;2023-05-20T02:11:48;102381.82;;;15.51;37.84
47742;BME280;33504;52.066;6.096;2023-05-20T02:14:15;102382.44;;;15.27;37.97
47742;BME280;33504;52.066;6.096;2023-05-20T02:16:42;102378.49;;;15.52;37.87
47742;BME280;33504;52.066;6.096;2023-05-20T02:19:09;102381.79;;;15.22;38.08
47742;BME280;33504;52.066;6.096;2023-05-20T02:21:36;102378.63;;;15.44;38.13
47742;BME280;33504;52.066;6.096;2023-05-20T02:24:03;102378.69;;;15.46;37.97
47742;BME280;33504;52.066;6.096;2023-05-20T02:26:30;102379.45;;;15.41;37.81
47742;BME280;33504;52.066;6.096;2023-05-20T02:28:57;102374.71;;;15.11;37.73
47742;BME280;33504;52.066;6.096;2023-05-20T02:31:24;102376.11;;;15.27;37.80
47742;BME280;33504;52.066;6.096;2023-05-20T02:33:51;102374.05;;;15.17;37.88
47742;BME280;33504;52.066;6.096;2023-05-20T02:36:18;102377.28;;;15.06;38.02
47742;BME280;33504;52.066;6.096;2023-05-20T02:38:44;102376.42;;;14.98;38.18
47742;BME280;33504;52.066;6.096;2023-05-20T02:41:11;102375.28;;;14.68;38.64
47742;BME280;33504;52.066;6.096;2023-05-20T02:43:38;102369.63;;;14.84;38.89
47742;BME280;33504;52.066;6.096;2023-05-20T02:46:05;102367.74;;;14.81;38.93
47742;BME280;33504;52.066;6.096;2023-05-20T02:48:31;102363.04;;;14.77;38.94
47742;BME280;33504;52.066;6.096;2023-05-20T02:50:58;102360.65;;;14.78;38.89
47742;BME280;33504;52.066;6.096;2023-05-20T02:53:25;102359.53;;;14.77;38.97
47742;BME280;33504;52.066;6.096;2023-05-20T02:55:52;102357.88;;;14.79;38.96
47742;BME280;33504;52.066;6.096;2023-05-20T02:58:19;102359.32;;;15.00;38.94
47742;BME280;33504;52.066;6.096;2023-05-20T03:00:45;102356.57;;;14.75;39.06
47742;BME280;33504;52.066;6.096;2023-05-20T03:03:12;102357.23;;;14.74;39.07
47742;BME280;33504;52.066;6.096;2023-05-20T03:05:39;102357.18;;;14.93;39.04
47742;BME280;33504;52.066;6.096;2023-05-20T03:08:08;102357.80;;;14.91;39.02
47742;BME280;33504;52.066;6.096;2023-05-20T03:10:35;102355.98;;;14.88;39.17
47742;BME280;33504;52.066;6.096;2023-05-20T03:13:05;102357.47;;;14.60;39.20
47742;BME280;33504;52.066;6.096;2023-05-20T03:15:33;102357.67;;;14.79;39.21
47742;BME280;33504;52.066;6.096;2023-05-20T03:18:00;102364.25;;;14.53;39.41
47742;BME280;33504;52.066;6.096;2023-05-20T03:20:27;102367.71;;;14.70;39.38
47742;BME280;33504;52.066;6.096;2023-05-20T03:22:55;102368.62;;;14.41;39.49
47742;BME280;33504;52.066;6.096;2023-05-20T03:25:23;102365.27;;;14.58;39.55
47742;BME280;33504;52.066;6.096;2023-05-20T03:27:50;102365.04;;;14.55;39.61
47742;BME280;33504;52.066;6.096;2023-05-20T03:30:17;102365.51;;;14.50;39.54
47742;BME280;33504;52.066;6.096;2023-05-20T03:32:45;102365.34;;;14.43;39.64
47742;BME280;33504;52.066;6.096;2023-05-20T03:35:12;102368.02;;;14.36;39.88
47742;BME280;33504;52.066;6.096;2023-05-20T03:37:40;102371.86;;;14.58;39.88
47742;BME280;33504;52.066;6.096;2023-05-20T03:40:08;102371.34;;;14.30;39.93
47742;BME280;33504;52.066;6.096;2023-05-20T03:42:35;102371.63;;;14.23;40.01
47742;BME280;33504;52.066;6.096;2023-05-20T03:45:02;102374.69;;;14.20;39.97
47742;BME280;33504;52.066;6.096;2023-05-20T03:47:29;102375.98;;;13.95;40.00
47742;BME280;33504;52.066;6.096;2023-05-20T03:49:56;102377.35;;;14.39;40.06
47742;BME280;33504;52.066;6.096;2023-05-20T03:52:23;102377.22;;;14.04;40.23
47742;BME280;33504;52.066;6.096;2023-05-20T03:54:50;102375.99;;;14.01;40.24
47742;BME280;33504;52.066;6.096;2023-05-20T03:57:17;102376.83;;;14.23;40.40
47742;BME280;33504;52.066;6.096;2023-05-20T03:59:44;102375.35;;;14.19;40.33
47742;BME280;33504;52.066;6.096;2023-05-20T04:02:11;102373.20;;;13.87;40.45
47742;BME280;33504;52.066;6.096;2023-05-20T04:04:38;102374.23;;;14.08;40.49
47742;BME280;33504;52.066;6.096;2023-05-20T04:07:05;102371.81;;;14.08;40.53
47742;BME280;33504;52.066;6.096;2023-05-20T04:09:32;102375.34;;;14.05;40.48
47742;BME280;33504;52.066;6.096;2023-05-20T04:11:59;102375.68;;;14.04;40.67
47742;BME280;33504;52.066;6.096;2023-05-20T04:14:26;102377.77;;;14.00;40.73
47742;BME280;33504;52.066;6.096;2023-05-20T04:16:53;102377.81;;;13.99;40.64
47742;BME280;33504;52.066;6.096;2023-05-20T04:19:20;102377.04;;;13.98;40.73
47742;BME280;33504;52.066;6.096;2023-05-20T04:21:46;102378.29;;;13.96;40.54
47742;BME280;33504;52.066;6.096;2023-05-20T04:24:14;102380.14;;;13.88;40.39
47742;BME280;33504;52.066;6.096;2023-05-20T04:26:41;102376.79;;;13.82;40.47
47742;BME280;33504;52.066;6.096;2023-05-20T04:29:07;102373.61;;;13.78;40.64
47742;BME280;33504;52.066;6.096;2023-05-20T04:31:35;102370.02;;;13.74;40.73
47742;BME280;33504;52.066;6.096;2023-05-20T04:34:02;102372.26;;;13.71;40.66
47742;BME280;33504;52.066;6.096;2023-05-20T04:36:29;102371.82;;;13.70;40.88
47742;BME280;33504;52.066;6.096;2023-05-20T04:38:57;102373.14;;;13.73;41.25
47742;BME280;33504;52.066;6.096;2023-05-20T04:41:23;102372.59;;;13.74;41.31
47742;BME280;33504;52.066;6.096;2023-05-20T04:43:50;102375.54;;;13.79;41.34
47742;BME280;33504;52.066;6.096;2023-05-20T04:46:17;102378.12;;;13.86;41.21
47742;BME280;33504;52.066;6.096;2023-05-20T04:48:44;102383.42;;;13.93;41.24
47742;BME280;33504;52.066;6.096;2023-05-20T04:51:10;102378.63;;;14.02;41.20
47742;BME280;33504;52.066;6.096;2023-05-20T04:53:37;102379.80;;;13.81;41.14
47742;BME280;33504;52.066;6.096;2023-05-20T04:56:04;102382.38;;;13.81;41.28
47742;BME280;33504;52.066;6.096;2023-05-20T04:58:32;102382.87;;;14.08;41.46
47742;BME280;33504;52.066;6.096;2023-05-20T05:00:59;102381.48;;;13.67;41.35
47742;BME280;33504;52.066;6.096;2023-05-20T05:03:26;102380.30;;;13.97;41.40
47742;BME280;33504;52.066;6.096;2023-05-20T05:05:55;102380.17;;;14.04;41.33
47742;BME280;33504;52.066;6.096;2023-05-20T05:08:22;102380.83;;;14.12;41.28
47742;BME280;33504;52.066;6.096;2023-05-20T05:10:48;102380.36;;;14.44;41.37
47742;BME280;33504;52.066;6.096;2023-05-20T05:13:15;102375.36;;;14.26;41.38
47742;BME280;33504;52.066;6.096;2023-05-20T05:15:42;102376.38;;;14.30;41.43
47742;BME280;33504;52.066;6.096;2023-05-20T05:18:09;102376.13;;;14.15;41.38
47742;BME280;33504;52.066;6.096;2023-05-20T05:20:36;102368.71;;;14.47;41.35
47742;BME280;33504;52.066;6.096;2023-05-20T05:23:02;102366.18;;;14.41;41.78
47742;BME280;33504;52.066;6.096;2023-05-20T05:25:30;102363.32;;;14.56;41.57
47742;BME280;33504;52.066;6.096;2023-05-20T05:27:56;102365.13;;;14.35;41.66
47742;BME280;33504;52.066;6.096;2023-05-20T05:30:23;102362.54;;;14.47;41.56
47742;BME280;33504;52.066;6.096;2023-05-20T05:32:50;102362.32;;;14.51;41.56
47742;BME280;33504;52.066;6.096;2023-05-20T05:35:17;102358.81;;;14.59;41.91
47742;BME280;33504;52.066;6.096;2023-05-20T05:37:44;102359.75;;;14.70;41.84
47742;BME280;33504;52.066;6.096;2023-05-20T05:40:11;102361.80;;;14.76;41.41
47742;BME280;33504;52.066;6.096;2023-05-20T05:42:38;102361.98;;;14.72;41.25
47742;BME280;33504;52.066;6.096;2023-05-20T05:45:07;102357.48;;;14.82;41.14
47742;BME280;33504;52.066;6.096;2023-05-20T05:47:34;102354.18;;;15.01;40.99
47742;BME280;33504;52.066;6.096;2023-05-20T05:50:01;102356.55;;;15.38;40.70
47742;BME280;33504;52.066;6.096;2023-05-20T05:52:28;102356.60;;;15.25;40.57
47742;BME280;33504;52.066;6.096;2023-05-20T05:54:54;102358.20;;;15.18;40.29
47742;BME280;33504;52.066;6.096;2023-05-20T05:57:21;102357.00;;;15.22;40.46
47742;BME280;33504;52.066;6.096;2023-05-20T05:59:48;102361.90;;;15.34;39.79
47742;BME280;33504;52.066;6.096;2023-05-20T06:02:15;102361.95;;;14.76;40.46
47742;BME280;33504;52.066;6.096;2023-05-20T06:04:42;102363.86;;;15.51;40.06
47742;BME280;33504;52.066;6.096;2023-05-20T06:07:09;102366.52;;;15.43;40.28
47742;BME280;33504;52.066;6.096;2023-05-20T06:09:35;102361.17;;;15.24;39.38
47742;BME280;33504;52.066;6.096;2023-05-20T06:12:03;102363.29;;;15.11;39.79
47742;BME280;33504;52.066;6.096;2023-05-20T06:14:30;102358.83;;;15.03;39.83
47742;BME280;33504;52.066;6.096;2023-05-20T06:16:56;102358.92;;;15.76;39.04
47742;BME280;33504;52.066;6.096;2023-05-20T06:19:24;102355.65;;;15.78;38.77
47742;BME280;33504;52.066;6.096;2023-05-20T06:21:51;102355.72;;;15.41;39.41
47742;BME280;33504;52.066;6.096;2023-05-20T06:24:17;102355.25;;;15.92;38.55
47742;BME280;33504;52.066;6.096;2023-05-20T06:26:44;102350.28;;;15.96;39.02
47742;BME280;33504;52.066;6.096;2023-05-20T06:29:11;102350.62;;;16.18;38.82
47742;BME280;33504;52.066;6.096;2023-05-20T06:31:38;102350.30;;;16.45;38.01
47742;BME280;33504;52.066;6.096;2023-05-20T06:34:05;102344.92;;;16.57;37.77
47742;BME280;33504;52.066;6.096;2023-05-20T06:36:32;102343.03;;;16.99;36.91
47742;BME280;33504;52.066;6.096;2023-05-20T06:38:59;102344.51;;;16.91;37.61
47742;BME280;33504;52.066;6.096;2023-05-20T06:41:26;102344.33;;;17.04;37.35
47742;BME280;33504;52.066;6.096;2023-05-20T06:43:53;102340.29;;;16.74;37.55
47742;BME280;33504;52.066;6.096;2023-05-20T06:46:20;102339.15;;;16.40;37.00
47742;BME280;33504;52.066;6.096;2023-05-20T06:48:47;102333.52;;;17.13;36.93
47742;BME280;33504;52.066;6.096;2023-05-20T06:51:18;102336.82;;;17.30;36.63
47742;BME280;33504;52.066;6.096;2023-05-20T06:53:45;102334.03;;;17.16;37.39
47742;BME280;33504;52.066;6.096;2023-05-20T06:56:12;102332.47;;;17.52;36.79
47742;BME280;33504;52.066;6.096;2023-05-20T06:58:39;102328.44;;;17.75;36.63
47742;BME280;33504;52.066;6.096;2023-05-20T07:01:05;102330.80;;;17.95;35.95
47742;BME280;33504;52.066;6.096;2023-05-20T07:03:33;102326.28;;;17.97;35.70
47742;BME280;33504;52.066;6.096;2023-05-20T07:05:59;102325.09;;;18.15;35.01
47742;BME280;33504;52.066;6.096;2023-05-20T07:08:26;102323.44;;;18.14;34.80
47742;BME280;33504;52.066;6.096;2023-05-20T07:10:59;102318.74;;;18.28;35.13
47742;BME280;33504;52.066;6.096;2023-05-20T07:13:26;102320.96;;;18.16;35.39
47742;BME280;33504;52.066;6.096;2023-05-20T07:15:53;102320.93;;;18.15;34.29
47742;BME280;33504;52.066;6.096;2023-05-20T07:18:20;102320.37;;;18.21;34.38
47742;BME280;33504;52.066;6.096;2023-05-20T07:20:46;102322.58;;;18.95;33.97
47742;BME280;33504;52.066;6.096;2023-05-20T07:23:14;102321.30;;;18.79;33.95
47742;BME280;33504;52.066;6.096;2023-05-20T07:25:40;102316.09;;;19.02;33.58
47742;BME280;33504;52.066;6.096;2023-05-20T07:28:07;102312.54;;;19.03;33.65
47742;BME280;33504;52.066;6.096;2023-05-20T07:30:34;102310.73;;;19.09;32.74
47742;BME280;33504;52.066;6.096;2023-05-20T07:33:01;102311.64;;;18.95;32.84
47742;BME280;33504;52.066;6.096;2023-05-20T07:35:27;102306.78;;;19.23;32.99
47742;BME280;33504;52.066;6.096;2023-05-20T07:37:54;102303.85;;;19.26;32.70
47742;BME280;33504;52.066;6.096;2023-05-20T07:40:21;102302.72;;;19.19;32.67
47742;BME280;33504;52.066;6.096;2023-05-20T07:42:49;102298.62;;;19.25;32.78
47742;BME280;33504;52.066;6.096;2023-05-20T07:45:15;102299.73;;;19.03;31.78
47742;BME280;33504;52.066;6.096;2023-05-20T07:47:43;102296.94;;;18.88;31.98
47742;BME280;33504;52.066;6.096;2023-05-20T07:50:10;102296.73;;;19.48;32.08
47742;BME280;33504;52.066;6.096;2023-05-20T07:52:37;102289.57;;;19.64;32.14
47742;BME280;33504;52.066;6.096;2023-05-20T07:55:04;102285.13;;;19.50;31.25
47742;BME280;33504;52.066;6.096;2023-05-20T07:57:31;102289.98;;;19.38;31.49
47742;BME280;33504;52.066;6.096;2023-05-20T07:59:58;102287.02;;;19.58;31.51
47742;BME280;33504;52.066;6.096;2023-05-20T08:02:25;102282.20;;;19.91;31.52
47742;BME280;33504;52.066;6.096;2023-05-20T08:04:53;102284.41;;;19.82;31.37
47742;BME280;33504;52.066;6.096;2023-05-20T08:07:19;102279.67;;;20.12;30.24
47742;BME280;33504;52.066;6.096;2023-05-20T08:09:46;102279.35;;;19.53;30.40
47742;BME280;33504;52.066;6.096;2023-05-20T08:12:13;102286.77;;;19.93;30.28
47742;BME280;33504;52.066;6.096;2023-05-20T08:14:39;102286.88;;;20.49;30.58
47742;BME280;33504;52.066;6.096;2023-05-20T08:17:06;102282.45;;;20.02;30.00
47742;BME280;33504;52.066;6.096;2023-05-20T08:19:33;102280.34;;;20.36;29.68
47742;BME280;33504;52.066;6.096;2023-05-20T08:22:00;102280.55;;;20.14;29.66
47742;BME280;33504;52.066;6.096;2023-05-20T08:24:26;102277.88;;;20.62;29.41
47742;BME280;33504;52.066;6.096;2023-05-20T08:26:53;102274.80;;;19.96;29.37
47742;BME280;33504;52.066;6.096;2023-05-20T08:29:20;102274.87;;;19.72;30.15
47742;BME280;33504;52.066;6.096;2023-05-20T08:31:47;102276.28;;;20.84;29.54
47742;BME280;33504;52.066;6.096;2023-05-20T08:34:14;102270.27;;;20.80;29.67
47742;BME280;33504;52.066;6.096;2023-05-20T08:36:41;102276.47;;;20.48;28.96
47742;BME280;33504;52.066;6.096;2023-05-20T08:39:08;102267.47;;;20.65;28.89
47742;BME280;33504;52.066;6.096;2023-05-20T08:41:34;102268.22;;;21.56;27.76
47742;BME280;33504;52.066;6.096;2023-05-20T08:44:02;102263.22;;;21.54;27.66
47742;BME280;33504;52.066;6.096;2023-05-20T08:46:33;102265.02;;;21.47;27.48
47742;BME280;33504;52.066;6.096;2023-05-20T08:49:00;102262.39;;;21.00;27.74
47742;BME280;33504;52.066;6.096;2023-05-20T08:51:28;102260.37;;;21.23;27.67
47742;BME280;33504;52.066;6.096;2023-05-20T08:53:58;102253.41;;;21.40;27.53
47742;BME280;33504;52.066;6.096;2023-05-20T08:56:25;102255.48;;;21.07;27.36
47742;BME280;33504;52.066;6.096;2023-05-20T08:58:52;102251.64;;;21.32;27.63
47742;BME280;33504;52.066;6.096;2023-05-20T09:01:23;102250.24;;;21.20;27.96
47742;BME280;33504;52.066;6.096;2023-05-20T09:03:50;102244.94;;;20.90;27.60
47742;BME280;33504;52.066;6.096;2023-05-20T09:06:17;102244.76;;;21.35;27.53
47742;BME280;33504;52.066;6.096;2023-05-20T09:08:45;102242.87;;;21.29;27.19
47742;BME280;33504;52.066;6.096;2023-05-20T09:11:12;102245.01;;;21.14;27.04
47742;BME280;33504;52.066;6.096;2023-05-20T09:13:39;102254.15;;;21.36;27.19
47742;BME280;33504;52.066;6.096;2023-05-20T09:16:09;102251.90;;;21.98;26.25
47742;BME280;33504;52.066;6.096;2023-05-20T09:18:37;102242.29;;;22.08;25.96
47742;BME280;33504;52.066;6.096;2023-05-20T09:21:05;102242.23;;;21.49;25.98
47742;BME280;33504;52.066;6.096;2023-05-20T09:23:32;102235.60;;;20.86;26.72
47742;BME280;33504;52.066;6.096;2023-05-20T09:26:00;102234.61;;;21.96;26.44
47742;BME280;33504;52.066;6.096;2023-05-20T09:28:27;102227.62;;;22.11;26.01
47742;BME280;33504;52.066;6.096;2023-05-20T09:30:57;102228.07;;;22.43;25.78
47742;BME280;33504;52.066;6.096;2023-05-20T09:33:26;102228.75;;;22.64;25.52
47742;BME280;33504;52.066;6.096;2023-05-20T09:36:01;102225.99;;;23.25;25.09
47742;BME280;33504;52.066;6.096;2023-05-20T09:38:31;102221.12;;;22.88;24.40
47742;BME280;33504;52.066;6.096;2023-05-20T09:41:00;102231.09;;;22.26;24.57
47742;BME280;33504;52.066;6.096;2023-05-20T09:43:28;102229.42;;;22.48;25.15
47742;BME280;33504;52.066;6.096;2023-05-20T09:45:55;102227.83;;;23.05;24.53
47742;BME280;33504;52.066;6.096;2023-05-20T09:48:23;102223.45;;;22.60;24.99
47742;BME280;33504;52.066;6.096;2023-05-20T09:50:50;102225.58;;;22.76;25.43
47742;BME280;33504;52.066;6.096;2023-05-20T09:53:18;102231.29;;;23.37;24.76
47742;BME280;33504;52.066;6.096;2023-05-20T09:55:46;102218.82;;;22.85;24.46
47742;BME280;33504;52.066;6.096;2023-05-20T09:58:13;102216.18;;;22.54;24.84
47742;BME280;33504;52.066;6.096;2023-05-20T10:00:41;102215.39;;;22.14;24.87
47742;BME280;33504;52.066;6.096;2023-05-20T10:03:08;102217.94;;;22.18;25.15
47742;BME280;33504;52.066;6.096;2023-05-20T10:05:38;102216.02;;;22.55;25.74
47742;BME280;33504;52.066;6.096;2023-05-20T10:08:32;102214.54;;;22.49;25.41
47742;BME280;33504;52.066;6.096;2023-05-20T10:11:09;102208.08;;;22.78;25.20
47742;BME280;33504;52.066;6.096;2023-05-20T10:13:48;102204.17;;;21.95;25.66
47742;BME280;33504;52.066;6.096;2023-05-20T10:16:25;102201.68;;;22.56;24.87
47742;BME280;33504;52.066;6.096;2023-05-20T10:19:00;102202.37;;;22.70;24.95
47742;BME280;33504;52.066;6.096;2023-05-20T10:21:31;102195.54;;;22.50;25.15
47742;BME280;33504;52.066;6.096;2023-05-20T10:24:05;102191.17;;;23.28;24.81
47742;BME280;33504;52.066;6.096;2023-05-20T10:26:34;102190.18;;;23.54;24.69
47742;BME280;33504;52.066;6.096;2023-05-20T10:29:18;102187.81;;;23.33;24.20
47742;BME280;33504;52.066;6.096;2023-05-20T10:31:49;102187.32;;;23.09;24.14
47742;BME280;33504;52.066;6.096;2023-05-20T10:34:16;102182.08;;;24.03;24.15
47742;BME280;33504;52.066;6.096;2023-05-20T10:36:45;102178.23;;;24.12;23.58
47742;BME280;33504;52.066;6.096;2023-05-20T10:39:14;102173.04;;;24.23;23.34
47742;BME280;33504;52.066;6.096;2023-05-20T10:41:41;102170.13;;;24.90;23.07
47742;BME280;33504;52.066;6.096;2023-05-20T10:44:09;102175.00;;;24.03;23.25
47742;BME280;33504;52.066;6.096;2023-05-20T10:46:36;102167.13;;;24.90;22.39
47742;BME280;33504;52.066;6.096;2023-05-20T10:49:03;102169.47;;;24.99;22.75
47742;BME280;33504;52.066;6.096;2023-05-20T10:51:34;102168.00;;;24.01;22.68
47742;BME280;33504;52.066;6.096;2023-05-20T10:54:02;102165.10;;;24.93;22.68
47742;BME280;33504;52.066;6.096;2023-05-20T10:56:29;102170.91;;;24.47;22.56
47742;BME280;33504;52.066;6.096;2023-05-20T10:58:56;102165.52;;;23.34;23.43
47742;BME280;33504;52.066;6.096;2023-05-20T11:01:25;102160.38;;;24.17;22.85
47742;BME280;33504;52.066;6.096;2023-05-20T11:03:54;102157.43;;;24.27;23.04
47742;BME280;33504;52.066;6.096;2023-05-20T11:06:26;102159.08;;;24.79;23.22
47742;BME280;33504;52.066;6.096;2023-05-20T11:08:53;102163.82;;;24.89;23.08
47742;BME280;33504;52.066;6.096;2023-05-20T11:11:21;102157.64;;;25.69;23.34
47742;BME280;33504;52.066;6.096;2023-05-20T11:13:50;102164.60;;;25.66;22.61
47742;BME280;33504;52.066;6.096;2023-05-20T11:16:19;102150.99;;;25.04;22.10
47742;BME280;33504;52.066;6.096;2023-05-20T11:18:47;102150.83;;;24.77;22.53
47742;BME280;33504;52.066;6.096;2023-05-20T11:21:15;102147.99;;;25.26;23.05
47742;BME280;33504;52.066;6.096;2023-05-20T11:23:42;102138.58;;;24.55;22.47
47742;BME280;33504;52.066;6.096;2023-05-20T11:26:10;102147.92;;;25.09;23.45
47742;BME280;33504;52.066;6.096;2023-05-20T11:28:37;102147.81;;;23.85;23.65
47742;BME280;33504;52.066;6.096;2023-05-20T11:31:05;102143.30;;;23.59;23.61
47742;BME280;33504;52.066;6.096;2023-05-20T11:33:31;102144.29;;;23.45;24.08
47742;BME280;33504;52.066;6.096;2023-05-20T11:35:59;102140.03;;;22.60;24.65
47742;BME280;33504;52.066;6.096;2023-05-20T11:38:29;102131.85;;;22.59;24.93
47742;BME280;33504;52.066;6.096;2023-05-20T11:40:56;102136.14;;;23.30;24.40
47742;BME280;33504;52.066;6.096;2023-05-20T11:43:24;102133.34;;;23.56;24.16
47742;BME280;33504;52.066;6.096;2023-05-20T11:45:53;102130.28;;;23.96;24.84
47742;BME280;33504;52.066;6.096;2023-05-20T11:48:20;102130.96;;;23.32;24.71
47742;BME280;33504;52.066;6.096;2023-05-20T11:50:48;102126.94;;;23.04;24.67
47742;BME280;33504;52.066;6.096;2023-05-20T11:53:16;102124.84;;;23.04;24.46
47742;BME280;33504;52.066;6.096;2023-05-20T11:55:45;102121.58;;;23.68;24.64
47742;BME280;33504;52.066;6.096;2023-05-20T11:58:15;102120.18;;;23.33;24.72
47742;BME280;33504;52.066;6.096;2023-05-20T12:00:42;102116.09;;;22.82;24.87
47742;BME280;33504;52.066;6.096;2023-05-20T12:03:10;102113.20;;;23.34;24.93
47742;BME280;33504;52.066;6.096;2023-05-20T12:05:37;102104.19;;;23.80;24.64
47742;BME280;33504;52.066;6.096;2023-05-20T12:08:04;102103.14;;;23.61;24.89
47742;BME280;33504;52.066;6.096;2023-05-20T12:10:32;102104.08;;;23.76;24.63
47742;BME280;33504;52.066;6.096;2023-05-20T12:12:59;102098.17;;;24.03;24.94
47742;BME280;33504;52.066;6.096;2023-05-20T12:15:26;102101.70;;;24.58;24.63
47742;BME280;33504;52.066;6.096;2023-05-20T12:17:54;102095.51;;;24.39;24.39
47742;BME280;33504;52.066;6.096;2023-05-20T12:20:23;102085.99;;;24.67;24.59
47742;BME280;33504;52.066;6.096;2023-05-20T12:22:50;102082.63;;;25.06;24.50
47742;BME280;33504;52.066;6.096;2023-05-20T12:25:19;102079.12;;;24.54;23.65
47742;BME280;33504;52.066;6.096;2023-05-20T12:27:47;102080.72;;;24.31;24.13
47742;BME280;33504;52.066;6.096;2023-05-20T12:30:15;102067.14;;;25.18;23.67
47742;BME280;33504;52.066;6.096;2023-05-20T12:32:43;102066.40;;;25.14;23.06
47742;BME280;33504;52.066;6.096;2023-05-20T12:35:11;102072.59;;;26.22;22.69
47742;BME280;33504;52.066;6.096;2023-05-20T12:37:40;102073.77;;;25.58;22.37
47742;BME280;33504;52.066;6.096;2023-05-20T12:40:09;102081.47;;;25.36;22.54
47742;BME280;33504;52.066;6.096;2023-05-20T12:42:37;102073.91;;;25.24;22.69
47742;BME280;33504;52.066;6.096;2023-05-20T12:45:05;102073.47;;;25.89;22.96
47742;BME280;33504;52.066;6.096;2023-05-20T12:47:33;102059.83;;;25.42;22.49
47742;BME280;33504;52.066;6.096;2023-05-20T12:50:01;102061.82;;;25.43;22.25
47742;BME280;33504;52.066;6.096;2023-05-20T12:52:29;102057.55;;;26.39;21.66